Time;durP1;ratioP1;P1;durP2;ratioP2;P2;SDS_P1;SDS_P2;PMS_P1;PMS_P2;Temp;Humidity;BMP_temperature;BMP_pressure;BME280_temperature;BME280_humidity;BME280_pressure;Samples;Min_cycle;Max_cycle;Signal;HPM_P1;HPM_P2
2021/12/25 00:01:07;;;;;;;36.75;31.85;;;4.70;99.90;;;;;;5044311;28;20032;-76
2021/12/25 00:03:34;;;;;;;33.33;29.83;;;4.70;99.90;;;;;;5041944;28;20021;-77
2021/12/25 00:05:59;;;;;;;53.53;42.08;;;4.90;99.90;;;;;;5029051;28;20025;-76
2021/12/25 00:08:28;;;;;;;65.07;48.00;;;4.90;99.90;;;;;;5041786;28;20115;-77
2021/12/25 00:10:55;;;;;;;57.30;45.10;;;5.00;99.90;;;;;;5042175;28;20033;-76
2021/12/25 00:13:20;;;;;;;63.05;45.80;;;5.00;99.90;;;;;;5050089;28;20025;-76
2021/12/25 00:15:50;;;;;;;58.13;42.30;;;5.00;99.90;;;;;;5024628;28;20506;-77
2021/12/25 00:18:17;;;;;;;59.08;43.00;;;5.10;99.90;;;;;;5043781;28;20472;-77
2021/12/25 00:20:43;;;;;;;59.47;42.92;;;5.00;99.90;;;;;;5038144;28;20021;-77
2021/12/25 00:23:10;;;;;;;68.13;46.20;;;5.00;99.90;;;;;;5052479;28;20042;-76
2021/12/25 00:25:42;;;;;;;57.47;42.00;;;5.10;99.90;;;;;;5043398;28;20021;-75
2021/12/25 00:28:36;;;;;;;59.58;39.92;;;5.10;99.90;;;;;;5049237;28;20021;-75
2021/12/25 00:36:16;;;;;;;36.33;28.75;;;5.20;99.90;;;;;;5039280;28;20113;-75
2021/12/25 00:38:42;;;;;;;29.90;26.38;;;5.20;99.90;;;;;;5041080;28;20079;-75
2021/12/25 00:41:09;;;;;;;32.22;27.85;;;5.20;99.90;;;;;;5038415;28;20025;-75
2021/12/25 00:43:34;;;;;;;38.40;30.83;;;5.20;99.90;;;;;;5058835;28;20032;-74
2021/12/25 00:46:00;;;;;;;45.80;32.10;;;5.20;99.90;;;;;;5038878;28;20026;-74
2021/12/25 00:48:26;;;;;;;38.28;30.13;;;5.10;99.90;;;;;;5041520;28;20036;-75
2021/12/25 00:50:52;;;;;;;35.97;29.33;;;5.30;99.90;;;;;;5041914;28;20030;-75
2021/12/25 00:53:18;;;;;;;44.42;34.05;;;5.20;99.90;;;;;;5043468;28;20025;-75
2021/12/25 00:55:44;;;;;;;35.55;28.23;;;5.20;99.90;;;;;;5040806;28;20025;-74
2021/12/25 00:58:09;;;;;;;53.25;36.67;;;5.20;99.90;;;;;;5061495;28;20024;-74
2021/12/25 01:00:35;;;;;;;37.38;30.58;;;5.20;99.90;;;;;;5039872;28;20088;-75
2021/12/25 01:03:00;;;;;;;36.90;30.27;;;5.20;99.90;;;;;;5043374;28;20025;-75
2021/12/25 01:05:26;;;;;;;41.38;32.90;;;5.20;99.90;;;;;;5034981;28;20061;-75
2021/12/25 01:07:52;;;;;;;45.72;32.85;;;5.20;99.90;;;;;;5040886;28;20068;-75
2021/12/25 01:10:20;;;;;;;54.65;35.72;;;5.20;99.90;;;;;;5041903;28;20083;-75
2021/12/25 01:15:26;;;;;;;42.78;32.67;;;5.00;99.90;;;;;;5039848;28;20491;-75
2021/12/25 01:18:12;;;;;;;48.83;35.03;;;5.00;99.90;;;;;;5039818;28;20495;-75
2021/12/25 01:21:12;;;;;;;52.13;35.35;;;5.10;99.90;;;;;;5029357;28;20024;-75
2021/12/25 01:23:59;;;;;;;56.22;36.83;;;4.90;99.90;;;;;;5040979;28;20014;-75
2021/12/25 01:31:51;;;;;;;60.22;39.47;;;4.80;99.90;;;;;;5042245;28;20053;-75
2021/12/25 01:34:52;;;;;;;57.38;39.65;;;4.80;99.90;;;;;;5042865;28;20347;-76
2021/12/25 01:50:06;;;;;;;55.42;39.03;;;4.80;99.90;;;;;;5010859;28;20036;-74
2021/12/25 01:52:32;;;;;;;51.30;37.72;;;4.90;99.90;;;;;;5025242;28;20384;-75
2021/12/25 01:55:02;;;;;;;52.55;36.70;;;4.90;99.90;;;;;;5008307;28;20091;-74
2021/12/25 01:57:29;;;;;;;51.28;36.35;;;4.90;99.90;;;;;;5019843;28;20076;-75
2021/12/25 01:59:56;;;;;;;37.50;29.73;;;4.90;99.90;;;;;;5020227;28;20036;-74
2021/12/25 02:02:22;;;;;;;51.60;35.88;;;5.00;99.90;;;;;;5015903;28;20058;-75
2021/12/25 02:04:49;;;;;;;41.80;32.55;;;4.90;99.90;;;;;;5028846;28;20443;-75
2021/12/25 02:07:14;;;;;;;34.47;28.30;;;4.90;99.90;;;;;;5022778;28;20480;-76
2021/12/25 02:09:40;;;;;;;34.20;27.30;;;4.90;99.90;;;;;;5027759;28;20049;-75
2021/12/25 02:12:07;;;;;;;35.38;28.00;;;4.90;99.90;;;;;;5005539;28;20021;-75
2021/12/25 02:14:35;;;;;;;39.65;31.65;;;4.90;99.90;;;;;;5026100;28;20021;-74
2021/12/25 02:17:16;;;;;;;47.40;36.83;;;5.00;99.90;;;;;;5023129;28;20063;-74
2021/12/25 02:19:49;;;;;;;42.70;31.45;;;5.00;99.90;;;;;;5007866;28;20029;-75
2021/12/25 02:22:17;;;;;;;37.88;29.55;;;5.00;99.90;;;;;;5025962;28;20025;-76
2021/12/25 02:24:43;;;;;;;37.92;29.48;;;5.00;99.90;;;;;;5017162;28;20483;-75
2021/12/25 02:27:09;;;;;;;48.38;33.92;;;5.10;99.90;;;;;;5005208;28;20040;-74
2021/12/25 02:29:34;;;;;;;45.65;31.67;;;5.00;99.90;;;;;;5023286;28;20543;-74
2021/12/25 02:32:02;;;;;;;47.22;32.83;;;5.00;99.90;;;;;;5022196;28;20029;-76
2021/12/25 02:34:28;;;;;;;41.25;30.42;;;5.00;99.90;;;;;;5013728;28;20025;-76
2021/12/25 02:36:53;;;;;;;71.30;40.30;;;5.00;99.90;;;;;;5024914;28;20341;-76
2021/12/25 02:39:20;;;;;;;63.03;38.42;;;5.00;99.90;;;;;;5025480;28;20125;-76
2021/12/25 02:41:45;;;;;;;63.47;38.88;;;5.00;99.90;;;;;;5022526;28;20036;-76
2021/12/25 02:44:11;;;;;;;84.30;44.25;;;5.00;99.90;;;;;;5020916;28;20022;-76
2021/12/25 02:46:36;;;;;;;53.17;36.17;;;5.00;99.90;;;;;;5029008;28;20124;-76
2021/12/25 02:49:02;;;;;;;55.38;36.08;;;5.10;99.90;;;;;;5020802;28;20029;-74
2021/12/25 02:51:28;;;;;;;66.03;40.47;;;5.00;99.90;;;;;;5026821;28;20025;-75
2021/12/25 02:53:54;;;;;;;66.05;38.80;;;4.90;99.90;;;;;;5003542;28;20113;-74
2021/12/25 02:56:20;;;;;;;40.13;31.00;;;4.90;99.90;;;;;;5019029;28;20102;-74
2021/12/25 02:58:45;;;;;;;47.40;34.72;;;4.80;99.90;;;;;;5004744;28;20384;-76
2021/12/25 03:01:17;;;;;;;52.53;36.30;;;4.90;99.90;;;;;;5017059;28;20029;-75
2021/12/25 03:03:43;;;;;;;59.15;36.78;;;4.90;99.90;;;;;;5003570;28;20033;-75
2021/12/25 03:06:10;;;;;;;60.60;35.85;;;4.90;99.90;;;;;;5024009;28;20029;-75
2021/12/25 03:08:37;;;;;;;91.53;44.50;;;4.90;99.90;;;;;;5020747;28;20026;-74
2021/12/25 03:11:06;;;;;;;134.00;50.17;;;4.90;99.90;;;;;;5009034;28;20117;-75
2021/12/25 03:13:42;;;;;;;274.05;74.45;;;4.80;99.90;;;;;;5011281;28;20037;-75
2021/12/25 03:16:07;;;;;;;76.43;45.70;;;4.70;99.90;;;;;;5011244;28;20026;-74
2021/12/25 03:18:40;;;;;;;112.65;55.55;;;4.70;99.90;;;;;;5012511;28;20018;-75
2021/12/25 03:21:07;;;;;;;68.50;44.67;;;4.90;99.90;;;;;;5012553;28;20026;-75
2021/12/25 03:23:36;;;;;;;60.50;41.50;;;4.70;99.90;;;;;;5012887;28;20026;-75
2021/12/25 03:26:04;;;;;;;56.35;40.10;;;4.80;99.90;;;;;;4994697;28;20104;-75
2021/12/25 03:28:32;;;;;;;70.65;44.92;;;4.80;99.90;;;;;;5010491;28;20033;-75
2021/12/25 03:31:01;;;;;;;75.43;46.72;;;4.90;99.90;;;;;;5012259;28;20113;-75
2021/12/25 03:33:28;;;;;;;89.40;51.08;;;4.90;99.90;;;;;;4994675;28;20022;-75
2021/12/25 03:35:54;;;;;;;76.38;47.55;;;4.80;99.90;;;;;;5004291;28;20105;-75
2021/12/25 03:38:20;;;;;;;86.88;50.22;;;4.90;99.90;;;;;;4976325;28;1033500;-75
2021/12/25 03:40:48;;;;;;;92.00;51.45;;;4.80;99.90;;;;;;5013119;28;20026;-76
2021/12/25 03:43:14;;;;;;;48.97;35.72;;;4.80;99.90;;;;;;5013192;28;20391;-76
2021/12/25 03:45:40;;;;;;;50.05;36.20;;;4.80;99.90;;;;;;5012741;28;20033;-76
2021/12/25 03:48:12;;;;;;;38.90;31.45;;;4.70;99.90;;;;;;4995346;28;20022;-76
2021/12/25 03:58:33;;;;;;;29.20;24.65;;;4.30;99.90;;;;;;5012844;28;20033;-75
2021/12/25 04:01:10;;;;;;;31.67;25.00;;;4.10;99.90;;;;;;4995209;28;20034;-74
2021/12/25 04:03:49;;;;;;;28.40;22.45;;;4.10;99.90;;;;;;4995102;28;20030;-74
2021/12/25 04:06:15;;;;;;;27.75;22.80;;;4.00;99.90;;;;;;5012711;28;20026;-75
2021/12/25 04:08:46;;;;;;;25.70;20.73;;;4.00;99.90;;;;;;5012222;28;20030;-74
2021/12/25 04:11:25;;;;;;;22.25;18.48;;;3.90;99.90;;;;;;4994900;28;20068;-74
2021/12/25 04:13:51;;;;;;;22.20;17.48;;;3.80;99.90;;;;;;5011003;28;20183;-74
2021/12/25 04:16:16;;;;;;;22.98;18.33;;;3.80;99.90;;;;;;5012544;28;20109;-74
2021/12/25 04:18:42;;;;;;;17.77;15.98;;;3.70;99.90;;;;;;5012356;28;20026;-74
2021/12/25 04:21:07;;;;;;;18.92;16.20;;;3.60;99.90;;;;;;4994811;28;20026;-74
2021/12/25 04:23:36;;;;;;;20.00;15.68;;;3.60;99.90;;;;;;5012206;28;20109;-75
2021/12/25 04:26:02;;;;;;;16.75;14.57;;;3.60;99.90;;;;;;5012280;28;20442;-75
2021/12/25 04:28:46;;;;;;;17.95;14.90;;;3.60;99.90;;;;;;5002538;28;20030;-75
2021/12/25 04:50:29;;;;;;;12.52;10.65;;;3.20;99.90;;;;;;5012147;28;20510;-76
2021/12/25 05:03:57;;;;;;;11.43;10.32;;;3.10;99.90;;;;;;5012063;28;20101;-76
2021/12/25 05:06:24;;;;;;;12.18;10.90;;;3.10;99.90;;;;;;5012124;28;20022;-75
2021/12/25 05:08:53;;;;;;;11.60;10.50;;;2.90;99.90;;;;;;5011700;28;20225;-76
2021/12/25 05:11:20;;;;;;;11.13;9.88;;;2.90;99.90;;;;;;5011835;28;20030;-76
2021/12/25 05:13:48;;;;;;;11.05;9.70;;;2.70;99.90;;;;;;5011539;28;20423;-76
2021/12/25 05:16:14;;;;;;;11.07;9.88;;;2.70;99.90;;;;;;5010328;28;20022;-75
2021/12/25 05:18:39;;;;;;;10.90;9.77;;;2.70;99.90;;;;;;5011639;28;20033;-75
2021/12/25 05:21:06;;;;;;;11.95;9.93;;;2.70;99.90;;;;;;5015614;28;20053;-76
2021/12/25 05:23:32;;;;;;;10.60;8.65;;;2.70;99.90;;;;;;5015895;28;20026;-76
2021/12/25 05:25:58;;;;;;;8.73;7.82;;;2.50;99.90;;;;;;5015676;28;20088;-76
2021/12/25 05:28:24;;;;;;;9.40;7.05;;;2.50;99.90;;;;;;5015693;28;20038;-75
2021/12/25 05:30:51;;;;;;;8.13;6.90;;;2.40;99.90;;;;;;5015782;28;20030;-76
2021/12/25 05:33:17;;;;;;;7.70;6.95;;;2.40;99.90;;;;;;5015688;28;20439;-76
2021/12/25 05:35:43;;;;;;;7.40;6.60;;;2.40;99.90;;;;;;5007068;28;20017;-76
2021/12/25 05:38:13;;;;;;;7.57;6.88;;;2.30;99.90;;;;;;5015400;28;20053;-76
2021/12/25 05:40:40;;;;;;;6.95;6.25;;;2.30;99.90;;;;;;5015612;28;20021;-76
2021/12/25 05:43:05;;;;;;;6.85;6.25;;;2.40;99.90;;;;;;5015578;28;20480;-76
2021/12/25 05:45:32;;;;;;;7.38;6.53;;;2.30;99.90;;;;;;5015309;28;20033;-76
2021/12/25 05:47:57;;;;;;;7.05;6.35;;;2.30;99.90;;;;;;5015379;28;20027;-76
2021/12/25 05:50:23;;;;;;;6.78;6.18;;;2.30;99.90;;;;;;5015437;28;20405;-76
2021/12/25 05:52:48;;;;;;;6.82;6.10;;;2.30;99.90;;;;;;5011105;28;20113;-76
2021/12/25 05:55:14;;;;;;;6.05;5.55;;;2.30;99.90;;;;;;4997561;28;20388;-76
2021/12/25 05:57:40;;;;;;;6.25;5.68;;;2.20;99.90;;;;;;5015074;28;20026;-77
2021/12/25 06:00:08;;;;;;;6.30;5.70;;;2.20;99.90;;;;;;5007179;28;20026;-75
2021/12/25 06:02:35;;;;;;;5.82;5.32;;;2.20;99.90;;;;;;5002226;28;20030;-76
2021/12/25 06:05:03;;;;;;;6.30;5.70;;;2.20;99.90;;;;;;5003314;28;20451;-75
2021/12/25 06:07:29;;;;;;;6.00;5.40;;;2.20;99.90;;;;;;5015048;28;20097;-76
2021/12/25 06:09:54;;;;;;;5.65;5.15;;;2.10;99.90;;;;;;5007755;28;20037;-75
2021/12/25 06:12:20;;;;;;;5.95;5.45;;;2.30;99.90;;;;;;5014891;28;20096;-75
2021/12/25 06:14:47;;;;;;;5.55;5.05;;;2.10;99.90;;;;;;5004087;28;20022;-75
2021/12/25 06:17:12;;;;;;;5.57;5.07;;;2.20;99.90;;;;;;5009788;28;20394;-76
2021/12/25 06:19:38;;;;;;;6.20;5.60;;;2.10;99.90;;;;;;5014742;28;20026;-76
2021/12/25 06:22:03;;;;;;;5.88;5.38;;;2.00;99.90;;;;;;5001103;28;20088;-76
2021/12/25 06:24:30;;;;;;;6.03;5.53;;;2.00;99.90;;;;;;5014518;28;20037;-76
2021/12/25 06:26:55;;;;;;;7.15;6.50;;;2.00;99.90;;;;;;5014802;28;20026;-73
2021/12/25 06:29:23;;;;;;;6.55;5.95;;;1.90;99.90;;;;;;5014518;28;20034;-76
2021/12/25 06:31:50;;;;;;;6.45;5.95;;;2.00;99.90;;;;;;5001308;28;20025;-76
2021/12/25 06:34:15;;;;;;;6.47;5.90;;;1.90;99.90;;;;;;5014818;28;20014;-76
2021/12/25 06:36:41;;;;;;;6.50;6.00;;;1.90;99.90;;;;;;5014471;28;20026;-76
2021/12/25 06:39:11;;;;;;;7.75;7.05;;;1.90;99.90;;;;;;5014252;28;20034;-76
2021/12/25 06:41:36;;;;;;;8.23;7.53;;;1.90;99.90;;;;;;5014477;28;20539;-77
2021/12/25 06:44:02;;;;;;;8.85;8.05;;;1.90;99.90;;;;;;5014134;28;20022;-76
2021/12/25 06:46:27;;;;;;;10.25;8.90;;;1.80;99.90;;;;;;5014210;28;20034;-76
2021/12/25 06:48:53;;;;;;;9.50;8.60;;;1.70;99.90;;;;;;5001009;28;20032;-76
2021/12/25 06:51:19;;;;;;;9.93;8.93;;;1.70;99.90;;;;;;5014238;28;20025;-76
2021/12/25 06:53:45;;;;;;;9.05;8.20;;;1.70;99.90;;;;;;5014160;28;20388;-76
2021/12/25 06:56:10;;;;;;;9.68;8.77;;;1.60;99.90;;;;;;5012795;28;20022;-76
2021/12/25 06:58:36;;;;;;;10.93;9.93;;;1.60;99.90;;;;;;5013909;28;20365;-76
2021/12/25 07:01:02;;;;;;;10.00;9.10;;;1.50;99.90;;;;;;5008958;28;20072;-76
2021/12/25 07:03:28;;;;;;;9.27;8.45;;;1.50;99.90;;;;;;5013997;28;20492;-77
2021/12/25 07:05:54;;;;;;;10.68;9.57;;;1.60;99.90;;;;;;5000173;28;20026;-77
2021/12/25 07:08:19;;;;;;;10.35;9.38;;;1.50;99.90;;;;;;5013979;28;20026;-77
2021/12/25 07:10:45;;;;;;;11.23;10.23;;;1.50;99.90;;;;;;5013918;28;20635;-77
2021/12/25 07:13:16;;;;;;;11.15;10.10;;;1.50;99.90;;;;;;5013951;28;20034;-76
2021/12/25 07:15:42;;;;;;;12.23;11.07;;;1.50;99.90;;;;;;5008195;28;20072;-76
2021/12/25 07:18:08;;;;;;;12.40;11.20;;;1.40;99.90;;;;;;5007069;28;20030;-76
2021/12/25 07:20:33;;;;;;;12.50;11.30;;;1.50;99.90;;;;;;5013697;28;20410;-76
2021/12/25 07:22:59;;;;;;;12.73;11.50;;;1.40;99.90;;;;;;5002018;28;20033;-76
2021/12/25 07:25:24;;;;;;;12.10;10.95;;;1.30;99.90;;;;;;5008300;28;20053;-76
2021/12/25 07:27:50;;;;;;;12.38;11.18;;;1.20;99.90;;;;;;5013036;28;20045;-76
2021/12/25 07:30:16;;;;;;;12.82;11.52;;;1.30;99.90;;;;;;5013195;28;20030;-76
2021/12/25 07:32:42;;;;;;;11.68;10.57;;;1.20;99.90;;;;;;5013210;28;20041;-76
2021/12/25 07:35:08;;;;;;;11.50;10.40;;;1.30;99.90;;;;;;5013269;28;20031;-76
2021/12/25 07:37:34;;;;;;;12.57;11.27;;;1.20;99.90;;;;;;5005562;28;20557;-76
2021/12/25 07:40:00;;;;;;;12.05;10.85;;;1.10;99.90;;;;;;5013446;28;20049;-76
2021/12/25 07:42:26;;;;;;;11.35;10.32;;;1.10;99.90;;;;;;5012456;28;20076;-75
2021/12/25 07:44:55;;;;;;;12.40;11.20;;;1.00;99.90;;;;;;5008411;28;20034;-75
2021/12/25 07:47:22;;;;;;;11.25;10.15;;;0.90;99.90;;;;;;5005881;28;20117;-76
2021/12/25 07:49:48;;;;;;;11.63;10.52;;;0.90;99.90;;;;;;5003774;28;20022;-76
2021/12/25 07:52:13;;;;;;;11.27;10.18;;;0.90;99.90;;;;;;5008481;28;20084;-76
2021/12/25 07:54:39;;;;;;;11.82;10.63;;;0.90;99.90;;;;;;5013214;28;20029;-76
2021/12/25 07:57:04;;;;;;;11.65;10.55;;;1.00;99.90;;;;;;5012891;28;20034;-75
2021/12/25 07:59:30;;;;;;;12.40;11.20;;;0.90;99.90;;;;;;5008546;28;20088;-75
2021/12/25 08:01:56;;;;;;;11.43;10.32;;;0.90;99.90;;;;;;5002201;28;20474;-75
2021/12/25 08:04:22;;;;;;;10.88;9.88;;;0.80;99.90;;;;;;5012855;28;20030;-75
2021/12/25 08:06:47;;;;;;;11.05;10.05;;;0.90;99.90;;;;;;5006290;28;20033;-75
2021/12/25 08:09:13;;;;;;;12.40;11.20;;;0.80;99.90;;;;;;5012855;28;20037;-74
2021/12/25 08:11:39;;;;;;;10.98;9.98;;;0.80;99.90;;;;;;5012543;28;20033;-75
2021/12/25 08:14:04;;;;;;;11.20;10.10;;;0.90;99.90;;;;;;5012457;28;20383;-75
2021/12/25 08:16:30;;;;;;;10.50;9.50;;;0.90;99.90;;;;;;5012565;28;20035;-75
2021/12/25 08:18:55;;;;;;;11.48;10.38;;;0.90;99.90;;;;;;5012470;28;20033;-76
2021/12/25 08:21:21;;;;;;;10.85;9.85;;;0.90;99.90;;;;;;5011160;28;20025;-75
2021/12/25 08:23:47;;;;;;;11.25;10.23;;;0.90;99.90;;;;;;5012513;28;20022;-76
2021/12/25 08:26:13;;;;;;;10.43;9.43;;;0.90;99.90;;;;;;5012422;28;20464;-76
2021/12/25 08:28:38;;;;;;;11.00;10.00;;;0.80;99.90;;;;;;5006585;28;20064;-75
2021/12/25 08:31:04;;;;;;;10.82;9.82;;;0.80;99.90;;;;;;4994715;28;20068;-75
2021/12/25 08:33:29;;;;;;;11.43;10.27;;;0.70;99.90;;;;;;5012277;28;20034;-75
2021/12/25 08:35:55;;;;;;;10.68;9.68;;;0.80;99.90;;;;;;4994604;28;20026;-75
2021/12/25 08:38:20;;;;;;;9.70;8.80;;;0.80;99.90;;;;;;5012653;28;20030;-75
2021/12/25 08:40:46;;;;;;;10.50;9.50;;;0.90;99.90;;;;;;5012360;28;20029;-75
2021/12/25 08:43:14;;;;;;;10.57;9.57;;;0.80;99.90;;;;;;5012590;28;20033;-75
2021/12/25 08:45:49;;;;;;;9.90;9.00;;;0.90;99.90;;;;;;5012232;28;20026;-75
2021/12/25 08:48:18;;;;;;;10.10;9.13;;;1.00;99.90;;;;;;5011111;28;20382;-75
2021/12/25 08:50:50;;;;;;;10.07;9.07;;;0.90;99.90;;;;;;5012329;28;20033;-75
2021/12/25 08:53:17;;;;;;;9.07;8.27;;;0.90;99.90;;;;;;5012409;28;20029;-75
2021/12/25 08:55:43;;;;;;;8.77;7.97;;;0.90;99.90;;;;;;5012031;28;20036;-75
2021/12/25 08:58:09;;;;;;;8.00;7.30;;;1.00;99.90;;;;;;5003165;28;20030;-75
2021/12/25 09:00:34;;;;;;;8.77;7.97;;;1.00;99.90;;;;;;5012011;28;20590;-74
2021/12/25 09:03:00;;;;;;;6.65;6.07;;;1.00;99.90;;;;;;5010702;28;20042;-77
2021/12/25 09:05:26;;;;;;;6.75;6.15;;;1.00;99.90;;;;;;5012295;28;20079;-77
2021/12/25 09:07:52;;;;;;;6.07;5.57;;;1.00;99.90;;;;;;5003799;28;20372;-74
2021/12/25 09:10:18;;;;;;;6.88;6.32;;;1.00;99.90;;;;;;5007142;28;20022;-75
2021/12/25 09:12:45;;;;;;;6.68;6.07;;;1.00;99.90;;;;;;5012224;28;20022;-75
2021/12/25 09:15:11;;;;;;;6.50;5.90;;;0.90;99.90;;;;;;4994437;28;20395;-74
2021/12/25 09:17:37;;;;;;;6.20;5.70;;;0.90;99.90;;;;;;5011832;28;20068;-75
2021/12/25 09:20:05;;;;;;;6.13;5.53;;;0.90;99.90;;;;;;5011835;28;20022;-74
2021/12/25 09:22:31;;;;;;;5.90;5.40;;;1.00;99.90;;;;;;4994062;28;20518;-74
2021/12/25 09:24:57;;;;;;;5.82;5.32;;;1.00;99.90;;;;;;5011663;28;20041;-75
2021/12/25 09:27:22;;;;;;;5.53;5.05;;;0.90;99.90;;;;;;5011835;28;20026;-75
2021/12/25 09:29:48;;;;;;;5.53;5.13;;;0.90;99.90;;;;;;4994670;28;20037;-75
2021/12/25 09:32:14;;;;;;;5.47;4.97;;;1.00;99.90;;;;;;5003525;28;20057;-75
2021/12/25 09:34:39;;;;;;;4.80;4.40;;;1.00;99.90;;;;;;5007517;28;20018;-75
2021/12/25 09:37:06;;;;;;;5.65;5.15;;;1.00;99.90;;;;;;5011729;28;20037;-75
2021/12/25 09:39:32;;;;;;;5.95;5.45;;;0.90;99.90;;;;;;5007520;28;20026;-75
2021/12/25 09:41:58;;;;;;;6.13;5.35;;;0.80;99.90;;;;;;5011610;28;20026;-75
2021/12/25 09:44:24;;;;;;;6.53;5.90;;;0.90;99.90;;;;;;5007005;28;20326;-76
2021/12/25 09:46:50;;;;;;;6.10;5.60;;;0.80;99.90;;;;;;5011703;28;20365;-76
2021/12/25 09:49:16;;;;;;;6.70;5.82;;;0.80;99.90;;;;;;4996819;28;20026;-75
2021/12/25 09:51:41;;;;;;;6.45;5.85;;;0.80;99.90;;;;;;5001179;28;20036;-76
2021/12/25 09:54:10;;;;;;;6.55;5.95;;;0.70;99.90;;;;;;5011334;28;20026;-76
2021/12/25 09:56:38;;;;;;;5.97;5.47;;;0.70;99.90;;;;;;5011500;28;20061;-76
2021/12/25 09:59:05;;;;;;;5.88;5.38;;;0.70;99.90;;;;;;5011714;28;20022;-76
2021/12/25 10:01:34;;;;;;;6.22;5.72;;;0.80;99.90;;;;;;5001521;28;20058;-76
2021/12/25 10:04:00;;;;;;;6.97;6.28;;;0.80;99.90;;;;;;5011098;28;20060;-76
2021/12/25 10:06:35;;;;;;;7.07;6.00;;;0.80;99.90;;;;;;5014185;28;20061;-76
2021/12/25 10:09:30;;;;;;;6.47;5.88;;;0.80;99.90;;;;;;5010321;28;20124;-76
2021/12/25 10:12:13;;;;;;;6.97;6.38;;;0.80;99.90;;;;;;4984937;28;20041;-76
2021/12/25 10:14:42;;;;;;;6.20;5.70;;;0.90;99.90;;;;;;5015016;28;20018;-76
2021/12/25 10:17:42;;;;;;;6.13;5.60;;;1.00;99.90;;;;;;5014892;28;20440;-75
2021/12/25 10:20:11;;;;;;;6.30;5.75;;;1.00;99.90;;;;;;5007485;28;20133;-76
2021/12/25 10:23:08;;;;;;;6.40;5.85;;;0.90;99.90;;;;;;5014824;28;20570;-76
2021/12/25 10:25:43;;;;;;;6.63;6.07;;;0.90;99.90;;;;;;4989887;28;20030;-75
2021/12/25 10:28:10;;;;;;;7.07;6.38;;;0.90;99.90;;;;;;5014396;28;20392;-75
2021/12/25 10:30:59;;;;;;;7.47;6.38;;;1.00;99.90;;;;;;5002675;28;20030;-75
2021/12/25 10:33:47;;;;;;;6.20;5.70;;;1.00;99.90;;;;;;4991915;28;20084;-75
2021/12/25 10:36:27;;;;;;;7.65;6.95;;;1.00;99.90;;;;;;5009882;28;20033;-75
2021/12/25 10:39:23;;;;;;;7.22;6.63;;;1.00;99.90;;;;;;4994412;28;20515;-75
2021/12/25 10:41:54;;;;;;;6.85;6.30;;;1.10;99.90;;;;;;4997488;28;20056;-75
2021/12/25 10:44:29;;;;;;;6.45;5.93;;;1.20;99.90;;;;;;5009609;28;20030;-75
2021/12/25 10:47:00;;;;;;;6.65;6.13;;;1.20;99.90;;;;;;5014069;28;20033;-75
2021/12/25 10:49:28;;;;;;;7.75;7.05;;;1.10;99.90;;;;;;5007179;28;20113;-75
2021/12/25 10:52:08;;;;;;;7.03;6.43;;;1.00;99.90;;;;;;5005444;28;20121;-76
2021/12/25 10:54:37;;;;;;;6.03;5.53;;;0.90;99.90;;;;;;4988937;28;20425;-76
2021/12/25 10:57:03;;;;;;;6.00;5.50;;;1.00;99.90;;;;;;5014157;28;20018;-76
2021/12/25 10:59:45;;;;;;;6.63;6.13;;;1.00;99.90;;;;;;5014091;28;20026;-76
2021/12/25 11:02:46;;;;;;;6.03;5.53;;;1.00;99.90;;;;;;5014128;28;20037;-75
2021/12/25 11:05:24;;;;;;;6.35;5.80;;;1.00;99.90;;;;;;5007688;28;20022;-76
2021/12/25 11:08:04;;;;;;;6.70;5.80;;;1.00;99.90;;;;;;5014045;28;20022;-75
2021/12/25 11:10:30;;;;;;;6.40;5.90;;;1.10;99.90;;;;;;5013915;28;20125;-75
2021/12/25 11:12:59;;;;;;;6.57;5.97;;;1.00;99.90;;;;;;5013768;28;20030;-75
2021/12/25 11:15:30;;;;;;;7.75;6.05;;;1.00;99.90;;;;;;5013493;28;20025;-76
2021/12/25 11:18:05;;;;;;;6.22;5.63;;;1.00;99.90;;;;;;5012554;28;20018;-76
2021/12/25 11:20:37;;;;;;;6.68;6.07;;;0.90;99.90;;;;;;4986788;28;20427;-76
2021/12/25 11:23:06;;;;;;;6.63;5.93;;;1.00;99.90;;;;;;5013720;28;20030;-75
2021/12/25 11:25:34;;;;;;;6.78;6.18;;;0.90;99.90;;;;;;5007589;28;20029;-75
2021/12/25 11:28:01;;;;;;;6.43;5.45;;;0.90;99.90;;;;;;5007295;28;20029;-75
2021/12/25 11:30:30;;;;;;;6.15;5.65;;;0.90;99.90;;;;;;5011395;28;20030;-75
2021/12/25 11:32:57;;;;;;;6.15;5.65;;;0.90;99.90;;;;;;4998980;28;20480;-75
2021/12/25 11:35:23;;;;;;;6.10;5.60;;;1.00;99.90;;;;;;5012936;28;20080;-75
2021/12/25 11:37:51;;;;;;;6.25;5.70;;;1.00;99.90;;;;;;4995580;28;20506;-75
2021/12/25 11:40:18;;;;;;;6.72;6.00;;;1.00;99.90;;;;;;4999538;28;20032;-76
2021/12/25 11:42:49;;;;;;;5.93;5.43;;;0.90;99.90;;;;;;5001930;28;20026;-76
2021/12/25 11:45:18;;;;;;;6.55;6.05;;;0.80;99.90;;;;;;5012914;28;20053;-75
2021/12/25 11:47:51;;;;;;;7.53;6.93;;;0.90;99.90;;;;;;5012666;28;20484;-75
2021/12/25 11:50:24;;;;;;;6.60;6.05;;;0.80;99.90;;;;;;5010907;28;20119;-75
2021/12/25 11:53:04;;;;;;;8.23;6.82;;;0.80;99.90;;;;;;5011385;28;20022;-74
2021/12/25 11:58:37;;;;;;;6.68;6.07;;;0.80;99.90;;;;;;5010507;28;20061;-76
2021/12/25 12:01:23;;;;;;;6.63;6.00;;;0.80;99.90;;;;;;5012905;28;20021;-76
2021/12/25 12:03:58;;;;;;;6.55;5.95;;;0.90;99.90;;;;;;5010195;28;20056;-76
2021/12/25 12:06:44;;;;;;;6.38;5.82;;;0.80;99.90;;;;;;5012816;28;20049;-76
2021/12/25 12:09:14;;;;;;;6.03;5.53;;;0.90;99.90;;;;;;4999261;28;20034;-76
2021/12/25 12:11:43;;;;;;;5.80;5.30;;;0.80;99.90;;;;;;5006453;28;20026;-77
2021/12/25 12:14:21;;;;;;;5.03;4.60;;;0.80;99.90;;;;;;5012568;28;20531;-76
2021/12/25 12:16:55;;;;;;;17.27;15.48;;;0.80;99.90;;;;;;5001094;28;20026;-76
2021/12/25 12:19:30;;;;;;;4.93;4.45;;;0.70;99.90;;;;;;5012397;28;20034;-76
2021/12/25 12:21:57;;;;;;;5.67;5.07;;;0.80;99.90;;;;;;5001744;28;20026;-76
2021/12/25 12:27:40;;;;;;;4.75;4.35;;;0.70;99.90;;;;;;4973229;28;20084;-76
2021/12/25 12:30:33;;;;;;;4.70;4.30;;;0.70;99.90;;;;;;5007687;28;20061;-76
2021/12/25 12:33:23;;;;;;;4.75;4.35;;;0.60;99.90;;;;;;5011948;28;20034;-75
2021/12/25 12:35:52;;;;;;;5.55;5.05;;;0.60;99.90;;;;;;4997681;28;20025;-75
2021/12/25 12:38:48;;;;;;;5.20;4.80;;;0.60;99.90;;;;;;4985136;28;20492;-75
2021/12/25 12:41:30;;;;;;;5.50;5.00;;;0.70;99.90;;;;;;5012386;28;20036;-75
2021/12/25 12:43:58;;;;;;;5.55;5.13;;;0.70;99.90;;;;;;5001024;28;20369;-75
2021/12/25 12:46:45;;;;;;;5.25;4.85;;;0.80;99.90;;;;;;4985023;28;20033;-75
2021/12/25 12:49:10;;;;;;;5.25;4.68;;;0.70;99.90;;;;;;4998318;28;20026;-75
2021/12/25 12:51:36;;;;;;;5.03;4.63;;;0.70;99.90;;;;;;5011622;28;20755;-75
2021/12/25 12:54:02;;;;;;;5.18;4.78;;;0.60;99.90;;;;;;5011756;28;20553;-75
2021/12/25 12:56:28;;;;;;;5.22;4.82;;;0.70;99.90;;;;;;5012048;28;20369;-75
2021/12/25 12:58:56;;;;;;;5.65;4.72;;;0.80;99.90;;;;;;4996007;28;20467;-74
2021/12/25 13:01:26;;;;;;;5.05;4.65;;;0.70;99.90;;;;;;5011896;28;20435;-75
2021/12/25 13:04:03;;;;;;;4.97;4.43;;;0.80;99.90;;;;;;5011817;28;20491;-74
2021/12/25 13:06:30;;;;;;;6.15;5.65;;;0.90;99.90;;;;;;5011914;28;20431;-75
2021/12/25 13:09:04;;;;;;;5.88;5.38;;;0.80;99.90;;;;;;5001218;28;20113;-75
2021/12/25 13:11:38;;;;;;;5.28;4.78;;;0.80;99.90;;;;;;5011858;28;20018;-75
2021/12/25 13:14:05;;;;;;;5.53;5.03;;;0.70;99.90;;;;;;4994083;28;20109;-75
2021/12/25 13:16:40;;;;;;;7.80;7.13;;;0.70;99.90;;;;;;5011839;28;20029;-75
2021/12/25 13:19:07;;;;;;;6.45;5.95;;;0.70;99.90;;;;;;4993015;28;20022;-75
2021/12/25 13:21:35;;;;;;;6.35;5.75;;;0.60;99.90;;;;;;5010279;28;20053;-76
2021/12/25 13:24:07;;;;;;;5.68;5.28;;;0.60;99.90;;;;;;5011120;28;20044;-76
2021/12/25 13:26:38;;;;;;;5.75;5.25;;;0.60;99.90;;;;;;5011767;28;20022;-75
2021/12/25 13:29:14;;;;;;;7.00;6.30;;;0.50;99.90;;;;;;5002527;28;20117;-75
2021/12/25 13:31:42;;;;;;;7.03;6.43;;;0.50;99.90;;;;;;5011761;28;20648;-75
2021/12/25 13:34:15;;;;;;;5.95;5.45;;;0.40;99.90;;;;;;5011522;28;20033;-72
2021/12/25 13:36:46;;;;;;;6.63;6.07;;;0.40;99.90;;;;;;5011726;28;20022;-75
2021/12/25 13:39:16;;;;;;;5.75;5.25;;;0.50;99.90;;;;;;5004832;28;20030;-74
2021/12/25 13:41:49;;;;;;;6.40;5.90;;;0.60;99.90;;;;;;5015105;28;20018;-75
2021/12/25 13:44:29;;;;;;;6.25;5.40;;;0.70;99.90;;;;;;5015152;28;20841;-75
2021/12/25 13:47:09;;;;;;;5.95;5.45;;;0.60;99.90;;;;;;5006339;28;20395;-74
2021/12/25 13:49:46;;;;;;;6.32;5.22;;;0.60;99.90;;;;;;5015204;28;20093;-74
2021/12/25 13:52:20;;;;;;;5.53;5.13;;;0.60;99.90;;;;;;5015148;28;20030;-74
2021/12/25 13:54:49;;;;;;;5.47;4.97;;;0.60;99.90;;;;;;5015144;28;20494;-74
2021/12/25 13:57:16;;;;;;;6.03;5.53;;;0.60;99.90;;;;;;5001381;28;20377;-74
2021/12/25 13:59:47;;;;;;;6.03;5.53;;;0.50;99.90;;;;;;5015165;28;20022;-74
2021/12/25 14:02:15;;;;;;;5.90;5.40;;;0.50;99.90;;;;;;5015112;28;20033;-74
2021/12/25 14:04:43;;;;;;;5.28;4.88;;;0.50;99.90;;;;;;4997261;28;20033;-74
2021/12/25 14:07:10;;;;;;;5.18;4.78;;;0.50;99.90;;;;;;5014957;28;20030;-74
2021/12/25 14:09:36;;;;;;;6.10;5.60;;;0.50;99.90;;;;;;5004912;28;20025;-74